Thunderstorms From: 15-12-2017 06:00 Until: 16-12-2017 06:00 warning for: Thunderstorms Level: Yellow info button

Although rather usual in this region, locally or potentially dangerous phenomena are expected. (such as local winds, summer thunderstorms, rising streams or high waves) Be aware and pay attention to the latest weather updates, especially if you carry out activities exposed to weather or close to a stream or shoreline. 


Meteo18 Weather Cam more information Meteo18 Weather Cam


warning for Thunderstorms more information blitzortung!


Rain radar more information rain snow radar


Visit our other weather sites:

Template documentation
and downloads

And another site



Weather Underground History page Text

Daily Summary for April 20, 2017 Units:  English    Metric   Both
« Previous Day
Next Day »
Daily Weekly Monthly Yearly Custom
  High: Low: Average:
Temperature: 52.9 °F 30.9 °F 43.2 °F
Dew Point: 29.3 °F 22.5 °F 25.9 °F
Humidity: 74 % 35 % 52 %
Wind Speed: 20 mph 0 mph 6.2 mph
Wind Gust: 23 mph - -
Wind:- - NE
Pressure: 30.6 in 30.5 in -
Precipitation: 0 in    
Historical Graphs
 
 
Tabular Data for April 20, 2017
Time Temperature Dew Point Pressure Wind Wind Speed Wind Gust Humidity Rainfall Rate (Hourly)
00:02 39 °F 25.5 °F 30.5 in NE 4 mph 6 mph 58 % 0 in
00:07 39 °F 25.5 °F 30.5 in NE 4 mph 7 mph 58 % 0 in
00:12 38.8 °F 25.7 °F 30.5 in NNE 4 mph 7 mph 59 % 0 in
00:17 38.8 °F 25.7 °F 30.5 in NNE 5 mph 7 mph 59 % 0 in
00:22 38.7 °F 25.5 °F 30.5 in NE 3 mph 8 mph 59 % 0 in
00:27 38.5 °F 25.9 °F 30.5 in NE 2 mph 8 mph 60 % 0 in
00:32 38.3 °F 25.7 °F 30.5 in NE 2 mph 8 mph 60 % 0 in
00:37 38.1 °F 25.9 °F 30.5 in ENE 4 mph 8 mph 61 % 0 in
00:42 37.9 °F 25.7 °F 30.5 in NE 2 mph 8 mph 61 % 0 in
00:47 37.8 °F 25.5 °F 30.5 in NE 4 mph 8 mph 61 % 0 in
00:52 37.6 °F 25.3 °F 30.5 in NE 2 mph 8 mph 61 % 0 in
00:57 37.2 °F 25 °F 30.5 in NE 3 mph 5 mph 61 % 0 in
01:02 37.6 °F 25.3 °F 30.5 in NNE 2 mph 5 mph 61 % 0 in
01:07 37.6 °F 25 °F 30.5 in NE 3 mph 7 mph 60 % 0 in
01:12 37.6 °F 25 °F 30.5 in NE 3 mph 7 mph 60 % 0 in
01:17 37.4 °F 24.8 °F 30.5 in NE 1 mph 5 mph 60 % 0 in
01:22 37.2 °F 24.6 °F 30.5 in NE 1 mph 5 mph 60 % 0 in
01:32 37.2 °F 24.6 °F 30.5 in NNE 2 mph 5 mph 60 % 0 in
01:37 37 °F 24.4 °F 30.5 in NE 3 mph 7 mph 60 % 0 in
01:42 37 °F 24.4 °F 30.5 in ENE 1 mph 7 mph 60 % 0 in
01:47 37 °F 24.4 °F 30.5 in Calm   7 mph 60 % 0 in
01:52 37 °F 24.4 °F 30.5 in Calm   7 mph 60 % 0 in
01:57 36.9 °F 24.3 °F 30.5 in Calm   5 mph 60 % 0 in
02:02 36.3 °F 24.1 °F 30.5 in NE 2 mph 5 mph 61 % 0 in
02:07 36 °F 24.3 °F 30.5 in NE 2 mph 4 mph 62 % 0 in
02:12 36 °F 24.3 °F 30.5 in NE 3 mph 4 mph 62 % 0 in
02:17 36 °F 24.3 °F 30.5 in NNE 3 mph 7 mph 62 % 0 in
02:22 36 °F 24.3 °F 30.5 in NNE 2 mph 7 mph 62 % 0 in
02:32 35.8 °F 24.1 °F 30.5 in Calm   7 mph 62 % 0 in
02:37 35.6 °F 23.9 °F 30.5 in NNE 2 mph 4 mph 62 % 0 in
02:47 35.1 °F 24.1 °F 30.5 in North 1 mph 2 mph 64 % 0 in
02:52 34.7 °F 24.1 °F 30.5 in NNE 1 mph 2 mph 65 % 0 in
02:57 34.3 °F 23.7 °F 30.5 in NNE 2 mph 4 mph 65 % 0 in
03:02 34.3 °F 24.1 °F 30.5 in NNE 1 mph 4 mph 66 % 0 in
03:07 34.3 °F 24.1 °F 30.5 in NW 1 mph 4 mph 66 % 0 in
03:12 34.2 °F 24.1 °F 30.5 in NNW 2 mph 4 mph 66 % 0 in
03:17 34.2 °F 24.1 °F 30.5 in NNE 4 mph 6 mph 66 % 0 in
03:22 34 °F 23.9 °F 30.5 in NE 3 mph 6 mph 66 % 0 in
03:27 34 °F 23.9 °F 30.5 in North 1 mph 5 mph 66 % 0 in
03:32 34 °F 23.9 °F 30.5 in ENE 2 mph 5 mph 66 % 0 in
03:37 34 °F 23.9 °F 30.5 in Calm   6 mph 66 % 0 in
03:42 34 °F 23.9 °F 30.5 in Calm   6 mph 66 % 0 in
03:47 33.6 °F 23.5 °F 30.5 in NNE 3 mph 5 mph 66 % 0 in
03:52 33.4 °F 23.7 °F 30.5 in Calm   5 mph 67 % 0 in
03:57 33.4 °F 23.7 °F 30.5 in NNE 1 mph 4 mph 67 % 0 in
04:02 33.3 °F 23.9 °F 30.5 in Calm   4 mph 68 % 0 in
04:12 33.1 °F 24.1 °F 30.5 in NW 1 mph 4 mph 69 % 0 in
04:17 33.3 °F 23.9 °F 30.5 in North 7 mph 7 mph 68 % 0 in
04:22 33.8 °F 24.1 °F 30.5 in Calm   7 mph 67 % 0 in
04:32 34.2 °F 23.5 °F 30.5 in NNE 6 mph 9 mph 65 % 0 in
04:37 34.3 °F 23.7 °F 30.5 in NNE 9 mph 10 mph 65 % 0 in
04:42 34.2 °F 23.5 °F 30.5 in NE 5 mph 10 mph 65 % 0 in
04:47 34.2 °F 24.1 °F 30.5 in NE 6 mph 11 mph 66 % 0 in
04:52 34 °F 23.9 °F 30.5 in NNE 3 mph 11 mph 66 % 0 in
05:02 33.6 °F 23.5 °F 30.5 in NE 6 mph 11 mph 66 % 0 in
05:07 33.6 °F 23.5 °F 30.5 in NE 5 mph 8 mph 66 % 0 in
05:17 33.4 °F 23.7 °F 30.5 in NE 2 mph 8 mph 67 % 0 in
05:22 33.4 °F 23.7 °F 30.5 in NE 4 mph 8 mph 67 % 0 in
05:32 32.9 °F 23.5 °F 30.5 in NNW 1 mph 8 mph 68 % 0 in
05:42 32.4 °F 23.7 °F 30.5 in NNE 3 mph 7 mph 70 % 0 in
05:52 31.8 °F 23.5 °F 30.5 in NE 2 mph 6 mph 71 % 0 in
06:02 31.6 °F 23.7 °F 30.5 in North 1 mph 5 mph 72 % 0 in
06:07 31.6 °F 23.7 °F 30.5 in NE 1 mph 5 mph 72 % 0 in
06:12 31.5 °F 23.5 °F 30.5 in Calm   5 mph 72 % 0 in
06:17 31.5 °F 23.9 °F 30.5 in Calm   5 mph 73 % 0 in
06:22 31.5 °F 23.9 °F 30.5 in NNE 1 mph 5 mph 73 % 0 in
06:32 30.9 °F 23.4 °F 30.5 in NNE 4 mph 4 mph 73 % 0 in
06:42 31.5 °F 24.1 °F 30.5 in NNE 4 mph 6 mph 74 % 0 in
06:52 32.2 °F 24.3 °F 30.5 in NNE 2 mph 7 mph 72 % 0 in
06:57 31.8 °F 23.9 °F 30.5 in NE 2 mph 8 mph 72 % 0 in
07:02 31.5 °F 23.9 °F 30.5 in North 5 mph 8 mph 73 % 0 in
07:12 31.8 °F 24.1 °F 30.5 in North 1 mph 7 mph 73 % 0 in
07:17 31.8 °F 24.1 °F 30.5 in NNE 3 mph 7 mph 73 % 0 in
07:22 31.8 °F 24.1 °F 30.5 in Calm   7 mph 73 % 0 in
07:32 32.2 °F 24.4 °F 30.5 in NNE 4 mph 8 mph 73 % 0 in
07:42 32.7 °F 24.6 °F 30.5 in North 6 mph 7 mph 72 % 0 in
07:52 33.3 °F 24.8 °F 30.5 in NE 2 mph 8 mph 71 % 0 in
08:02 33.6 °F 24.8 °F 30.5 in NE 7 mph 7 mph 70 % 0 in
08:07 34.2 °F 25 °F 30.6 in NE 6 mph 11 mph 69 % 0 in
08:12 34.5 °F 25 °F 30.6 in NE 8 mph 11 mph 68 % 0 in
08:17 34.9 °F 25 °F 30.6 in NE 8 mph 11 mph 67 % 0 in
08:22 35.2 °F 25 °F 30.6 in NE 7 mph 11 mph 66 % 0 in
08:32 35.6 °F 25 °F 30.6 in North 6 mph 12 mph 65 % 0 in
08:42 36.1 °F 25.2 °F 30.6 in NNE 4 mph 12 mph 64 % 0 in
08:52 36.7 °F 25.7 °F 30.6 in East 5 mph 12 mph 64 % 0 in
09:02 36.9 °F 25.9 °F 30.6 in NNE 6 mph 13 mph 64 % 0 in
09:12 37 °F 25.7 °F 30.6 in NE 5 mph 13 mph 63 % 0 in
09:17 37.2 °F 26.2 °F 30.6 in NE 4 mph 13 mph 64 % 0 in
09:22 37.6 °F 26.1 °F 30.6 in East 5 mph 13 mph 63 % 0 in
09:32 37.9 °F 26.4 °F 30.6 in NE 12 mph 13 mph 63 % 0 in
09:37 38.1 °F 26.6 °F 30.6 in NE 7 mph 17 mph 63 % 0 in
09:42 38.1 °F 26.6 °F 30.6 in NNE 7 mph 17 mph 63 % 0 in
09:47 38.5 °F 27.3 °F 30.6 in NE 5 mph 14 mph 64 % 0 in
09:52 38.8 °F 27 °F 30.6 in NE 8 mph 14 mph 62 % 0 in
09:57 39.4 °F 27.1 °F 30.6 in ENE 6 mph 14 mph 61 % 0 in
10:02 39.7 °F 26.6 °F 30.6 in NNE 11 mph 14 mph 59 % 0 in
10:12 40.1 °F 25.7 °F 30.6 in NE 6 mph 16 mph 56 % 0 in
10:17 40.6 °F 26.2 °F 30.6 in East 9 mph 19 mph 56 % 0 in
10:22 41 °F 26.4 °F 30.6 in ENE 10 mph 19 mph 56 % 0 in
10:32 41.7 °F 25 °F 30.6 in ENE 15 mph 18 mph 51 % 0 in
10:42 41.7 °F 25.3 °F 30.6 in East 12 mph 20 mph 52 % 0 in
10:52 42.4 °F 25.2 °F 30.6 in ENE 14 mph 20 mph 50 % 0 in
10:57 42.4 °F 24.6 °F 30.6 in NE 6 mph 21 mph 49 % 0 in
11:02 43 °F 24.1 °F 30.6 in ENE 9 mph 21 mph 47 % 0 in
11:12 43.3 °F 23.4 °F 30.6 in NNE 19 mph 23 mph 45 % 0 in
11:17 43.7 °F 23.7 °F 30.6 in NE 13 mph 23 mph 45 % 0 in
11:22 43.9 °F 23.4 °F 30.6 in ENE 12 mph 23 mph 44 % 0 in
11:32 44.8 °F 23 °F 30.6 in NE 12 mph 22 mph 42 % 0 in
11:42 44.4 °F 22.8 °F 30.6 in NE 20 mph 20 mph 42 % 0 in
11:47 44.6 °F 24.1 °F 30.6 in ENE 8 mph 23 mph 44 % 0 in
11:52 44.8 °F 22.5 °F 30.6 in NE 13 mph 23 mph 41 % 0 in
12:02 45 °F 22.6 °F 30.6 in NE 8 mph 22 mph 41 % 0 in
12:12 45.7 °F 23.4 °F 30.6 in ENE 14 mph 21 mph 41 % 0 in
12:17 46 °F 23.7 °F 30.6 in East 8 mph 20 mph 41 % 0 in
12:22 46.2 °F 23.9 °F 30.6 in NE 13 mph 20 mph 41 % 0 in
12:32 46.8 °F 23.7 °F 30.6 in ENE 19 mph 20 mph 40 % 0 in
12:42 47.1 °F 24.6 °F 30.6 in NE 5 mph 22 mph 41 % 0 in
12:47 47.7 °F 24.4 °F 30.5 in NNW 9 mph 22 mph 40 % 0 in
12:52 47.5 °F 23.7 °F 30.5 in NE 12 mph 22 mph 39 % 0 in
13:02 47.8 °F 22.8 °F 30.5 in NNE 16 mph 18 mph 37 % 0 in
13:07 48 °F 25.5 °F 30.5 in NNE 16 mph 18 mph 41 % 0 in
13:12 47.7 °F 24.4 °F 30.5 in NNE 8 mph 18 mph 40 % 0 in
13:17 48 °F 24.8 °F 30.5 in ENE 7 mph 23 mph 40 % 0 in
13:22 48.4 °F 25.2 °F 30.5 in NE 13 mph 23 mph 40 % 0 in
13:32 48.6 °F 24.8 °F 30.5 in NNE 9 mph 19 mph 39 % 0 in
13:37 48.7 °F 24.3 °F 30.5 in ENE 11 mph 20 mph 38 % 0 in
13:42 49.1 °F 25.2 °F 30.5 in NNE 11 mph 20 mph 39 % 0 in
13:47 49.5 °F 26.1 °F 30.5 in NE 11 mph 20 mph 40 % 0 in
13:52 49.1 °F 25.2 °F 30.5 in NNE 20 mph 20 mph 39 % 0 in
14:02 49.8 °F 27.7 °F 30.5 in NNE 9 mph 20 mph 42 % 0 in
14:07 49.8 °F 27.7 °F 30.5 in NNE 7 mph 21 mph 42 % 0 in
14:12 50.2 °F 28 °F 30.5 in NNE 9 mph 21 mph 42 % 0 in
14:17 49.8 °F 27.7 °F 30.5 in NE 9 mph 17 mph 42 % 0 in
14:22 49.8 °F 27.1 °F 30.5 in NNE 11 mph 17 mph 41 % 0 in
14:27 50.2 °F 27.3 °F 30.5 in NE 6 mph 23 mph 41 % 0 in
14:32 50.4 °F 27.5 °F 30.5 in NE 9 mph 23 mph 41 % 0 in
14:37 49.8 °F 27.1 °F 30.5 in NNE 12 mph 18 mph 41 % 0 in
14:42 50.5 °F 28.9 °F 30.5 in North 6 mph 18 mph 43 % 0 in
14:47 50.7 °F 27.9 °F 30.5 in NNE 18 mph 19 mph 41 % 0 in
14:52 50.5 °F 27.1 °F 30.5 in ENE 6 mph 19 mph 40 % 0 in
14:57 51.1 °F 29.3 °F 30.5 in ENE 9 mph 19 mph 43 % 0 in
15:02 50.9 °F 28 °F 30.5 in NNE 8 mph 19 mph 41 % 0 in
15:07 50.7 °F 27.9 °F 30.5 in NE 11 mph 18 mph 41 % 0 in
15:12 50.5 °F 27.7 °F 30.5 in NNE 13 mph 18 mph 41 % 0 in
15:17 50.9 °F 28 °F 30.5 in NNW 10 mph 18 mph 41 % 0 in
15:22 51.1 °F 28.8 °F 30.5 in NNE 9 mph 18 mph 42 % 0 in
15:27 51.1 °F 28.2 °F 30.5 in NE 8 mph 18 mph 41 % 0 in
15:32 51.4 °F 29.1 °F 30.5 in NNE 15 mph 18 mph 42 % 0 in
15:37 51.3 °F 27.1 °F 30.5 in NE 10 mph 19 mph 39 % 0 in
15:42 51.6 °F 29.3 °F 30.5 in NNE 2 mph 19 mph 42 % 0 in
15:47 51.6 °F 26.8 °F 30.5 in NE 12 mph 19 mph 38 % 0 in
15:52 51.8 °F 27.7 °F 30.5 in NE 12 mph 19 mph 39 % 0 in
15:57 52.2 °F 27.9 °F 30.5 in NE 6 mph 18 mph 39 % 0 in
16:02 52.2 °F 27.3 °F 30.5 in NNW 10 mph 18 mph 38 % 0 in
16:07 51.8 °F 28.8 °F 30.5 in North 7 mph 21 mph 41 % 0 in
16:12 51.6 °F 29.3 °F 30.5 in NNE 4 mph 21 mph 42 % 0 in
16:17 51.8 °F 27 °F 30.5 in NE 14 mph 21 mph 38 % 0 in
16:22 51.6 °F 28 °F 30.5 in ENE 6 mph 21 mph 40 % 0 in
16:27 52 °F 25.9 °F 30.5 in NE 6 mph 21 mph 36 % 0 in
16:32 52.5 °F 27.7 °F 30.5 in East 10 mph 21 mph 38 % 0 in
16:37 52.5 °F 27 °F 30.5 in North 14 mph 20 mph 37 % 0 in
16:42 51.8 °F 27 °F 30.5 in NE 12 mph 20 mph 38 % 0 in
16:47 52.3 °F 26.8 °F 30.5 in NNE 15 mph 20 mph 37 % 0 in
16:52 52.2 °F 26.1 °F 30.5 in NE 14 mph 20 mph 36 % 0 in
16:57 52.3 °F 26.2 °F 30.5 in NE 8 mph 18 mph 36 % 0 in
17:02 52.7 °F 27.1 °F 30.5 in NNE 9 mph 18 mph 37 % 0 in
17:07 52.5 °F 27 °F 30.5 in NE 6 mph 16 mph 37 % 0 in
17:17 52.7 °F 27.1 °F 30.5 in NE 12 mph 16 mph 37 % 0 in
17:22 52.9 °F 27.3 °F 30.5 in ENE 5 mph 16 mph 37 % 0 in
17:27 52.9 °F 26.6 °F 30.5 in NE 13 mph 15 mph 36 % 0 in
17:32 52.5 °F 26.2 °F 30.5 in NNE 12 mph 15 mph 36 % 0 in
17:37 52.9 °F 28.6 °F 30.5 in NE 10 mph 16 mph 39 % 0 in
17:42 52.9 °F 26.6 °F 30.5 in ENE 7 mph 16 mph 36 % 0 in
17:47 52.3 °F 26.2 °F 30.5 in ENE 6 mph 16 mph 36 % 0 in
17:52 52.3 °F 26.2 °F 30.5 in NE 10 mph 16 mph 36 % 0 in
17:57 52.7 °F 26.4 °F 30.5 in ENE 7 mph 16 mph 36 % 0 in
18:02 52.5 °F 25.7 °F 30.5 in NE 9 mph 16 mph 35 % 0 in
18:07 52.5 °F 27 °F 30.5 in NNE 14 mph 17 mph 37 % 0 in
18:12 52.5 °F 26.2 °F 30.5 in NE 5 mph 17 mph 36 % 0 in
18:17 52.5 °F 27 °F 30.5 in NNE 5 mph 17 mph 37 % 0 in
18:22 52.5 °F 26.2 °F 30.5 in East 9 mph 15 mph 36 % 0 in
18:27 52.3 °F 26.2 °F 30.5 in ENE 7 mph 15 mph 36 % 0 in
18:32 52.3 °F 26.2 °F 30.5 in ESE 8 mph 18 mph 36 % 0 in
18:37 52.3 °F 27.5 °F 30.5 in NNE 11 mph 18 mph 38 % 0 in
18:42 52.3 °F 27.5 °F 30.5 in NE 4 mph 17 mph 38 % 0 in
18:47 52.5 °F 27 °F 30.5 in ENE 11 mph 14 mph 37 % 0 in
18:52 52.3 °F 26.8 °F 30.5 in NNE 5 mph 14 mph 37 % 0 in
18:57 52 °F 26.6 °F 30.5 in ENE 9 mph 14 mph 37 % 0 in
19:07 52 °F 27.9 °F 30.5 in NE 10 mph 15 mph 39 % 0 in
19:12 51.8 °F 27.7 °F 30.5 in NE 10 mph 15 mph 39 % 0 in
19:17 51.4 °F 27.3 °F 30.5 in NE 7 mph 17 mph 39 % 0 in
19:22 51.4 °F 27.3 °F 30.5 in ENE 5 mph 17 mph 39 % 0 in
19:27 51.4 °F 27.9 °F 30.5 in NNE 12 mph 16 mph 40 % 0 in
19:32 51.3 °F 27.1 °F 30.5 in NE 8 mph 16 mph 39 % 0 in
19:37 51.1 °F 27.7 °F 30.5 in NE 5 mph 16 mph 40 % 0 in
19:42 51.1 °F 27.7 °F 30.5 in NNE 8 mph 16 mph 40 % 0 in
19:47 50.9 °F 26.8 °F 30.5 in NE 7 mph 13 mph 39 % 0 in
19:52 51.1 °F 27 °F 30.5 in NE 6 mph 13 mph 39 % 0 in
19:57 50.7 °F 27.9 °F 30.5 in NNE 8 mph 16 mph 41 % 0 in
20:02 50.5 °F 27.1 °F 30.5 in NE 10 mph 16 mph 40 % 0 in
20:07 50.5 °F 27.1 °F 30.5 in NE 12 mph 14 mph 40 % 0 in
20:12 50.4 °F 27.5 °F 30.5 in NNE 7 mph 14 mph 41 % 0 in
20:17 50 °F 27.1 °F 30.5 in NNE 6 mph 14 mph 41 % 0 in
20:22 49.6 °F 27.5 °F 30.5 in NE 11 mph 14 mph 42 % 0 in
20:32 49.1 °F 27.5 °F 30.5 in NE 7 mph 12 mph 43 % 0 in
20:37 48.6 °F 27.1 °F 30.5 in NNE 9 mph 12 mph 43 % 0 in
20:42 48.4 °F 27.5 °F 30.5 in NNE 3 mph 12 mph 44 % 0 in
20:47 48 °F 27.7 °F 30.5 in NNE 1 mph 11 mph 45 % 0 in
20:57 47.5 °F 27.7 °F 30.5 in NNE 5 mph 6 mph 46 % 0 in
21:02 46.9 °F 27.7 °F 30.5 in North 3 mph 6 mph 47 % 0 in
21:07 46.6 °F 27.9 °F 30.5 in NNE 1 mph 7 mph 48 % 0 in
21:12 46 °F 27.5 °F 30.5 in Calm   7 mph 48 % 0 in
21:17 45.7 °F 27.7 °F 30.5 in NE 1 mph 7 mph 49 % 0 in
21:22 45.3 °F 27.9 °F 30.5 in NNE 1 mph 7 mph 50 % 0 in
21:27 45.1 °F 27.7 °F 30.5 in Calm   6 mph 50 % 0 in
21:32 44.8 °F 27.7 °F 30.5 in Calm   6 mph 51 % 0 in
21:37 44.8 °F 27.7 °F 30.5 in North 1 mph 4 mph 51 % 0 in
21:42 44.4 °F 27.9 °F 30.5 in NNE 3 mph 4 mph 52 % 0 in
21:47 44.4 °F 27.9 °F 30.5 in Calm   7 mph 52 % 0 in
21:52 44.6 °F 28 °F 30.5 in NE 2 mph 7 mph 52 % 0 in
22:02 44.8 °F 28.2 °F 30.5 in NE 3 mph 11 mph 52 % 0 in
22:07 44.6 °F 28 °F 30.5 in NE 4 mph 9 mph 52 % 0 in
22:12 44.4 °F 27.9 °F 30.5 in NNE 3 mph 9 mph 52 % 0 in
22:17 44.8 °F 28.2 °F 30.5 in NE 2 mph 12 mph 52 % 0 in
22:22 45 °F 27.9 °F 30.5 in NE 4 mph 12 mph 51 % 0 in
22:27 45 °F 27.9 °F 30.5 in NE 8 mph 12 mph 51 % 0 in
22:32 45.3 °F 28.2 °F 30.5 in NE 8 mph 12 mph 51 % 0 in
22:37 45.5 °F 27.9 °F 30.5 in NNE 9 mph 14 mph 50 % 0 in
22:42 45.3 °F 27.9 °F 30.5 in NNE 3 mph 14 mph 50 % 0 in
22:47 44.8 °F 28.2 °F 30.5 in NNE 3 mph 14 mph 52 % 0 in
22:52 44.4 °F 28.4 °F 30.5 in North 2 mph 14 mph 53 % 0 in
22:57 44.2 °F 28.2 °F 30.5 in NE 5 mph 11 mph 53 % 0 in
23:02 44.1 °F 28 °F 30.5 in NE 3 mph 11 mph 53 % 0 in
23:07 44.1 °F 27.5 °F 30.5 in North 6 mph 13 mph 52 % 0 in
23:12 44.2 °F 27.7 °F 30.5 in NNE 5 mph 13 mph 52 % 0 in
23:17 44.1 °F 27.5 °F 30.5 in NNE 1 mph 13 mph 52 % 0 in
23:22 43.9 °F 27.9 °F 30.5 in NNE 3 mph 13 mph 53 % 0 in
23:32 43.5 °F 28 °F 30.5 in NNE 1 mph 11 mph 54 % 0 in
23:37 43.3 °F 28.2 °F 30.5 in NE 5 mph 7 mph 55 % 0 in
23:42 43.5 °F 28 °F 30.5 in NNE 7 mph 7 mph 54 % 0 in
23:47 43.9 °F 28.4 °F 30.5 in North 4 mph 12 mph 54 % 0 in
23:52 44.1 °F 28 °F 30.5 in NNE 10 mph 12 mph 53 % 0 in
Meteo18
Compliments of Weather Underground - 4 mb

Script developed by  Jim McMurry - jmcmurry@mwt.net Adapted for the template by  Wim van der Kuil - Leuven-Template.eu

You find our weather info also at:

European Weather Network

Weather Underground

Equipment we use:

Weather-station
Davis Vue

Weather-program
Meteohub

Weather-server
Raspberry PI 2 B+

Provider
1 and 1

Davis Vue

Meteohub

Raspberry PI 2 B+

1 and 1